hwlogo.jpg (8581 bytes)
Home Your Weather Products Services Weather On Your Site Contact
HW Version Logo
Weather Info
Your Weather (Options)
Canadian Weather
International Weather
Enter your " Place, State", US Zip Code or ICAO:  
Forecast Information Radar Information
Dalhousie, New Brunswick, Canada  Lat: 47.97N, Lon: 66.33W
ICAO Used: CZBF
Current Conditions
Updated:
Sun & Moon Information:
Temp: N/A
Humidity: N/A
Wind Speed: N/A
Barometer: N/A
Dewpoint: N/A
Heat Index: N/A
Wind Chill: N/A
Civil Twilight: 6:21 AM EDT Moon Phase:
Waxing Crescent Moon
Waxing Crescent Moon
Sunrise: 6:53 AM EDT
Sunset: 5:24 PM EDT
Civil Twilight: 5:56 PM EDT
Forecast for Dalhousie, NB, Canada:
(Forecast based on TAF for )
0339 PM EDT MON NOV 06 2006
  
AFTERNOONEVENINGOVERNIGHT
PARTLY CLOUDYPARTLY CLOUDYPARTLY CLOUDY
Partly
Cloudy
Partly
Cloudy
Partly
Cloudy
TAF based forecast:
Dated: 0339 PM EDT MON NOV 06 2006
Afternoon...Partly cloudy with winds variable at 3 mph.
Evening...Partly cloudy with winds variable at 3 mph.
Overnight...Partly cloudy with winds variable at 3 mph.
Original Encoded TAF:
Dated: 0339 PM EDT MON NOV 06 2006
2006/11/06 19:39
CZBF 061939Z 062004 VRB03KT P6SM FEW050=


  Powered By HAMweather.
Copyright 2001 - 2003 HAMweather, LLC, all rights reserved.
US Forecasts are Public Domain and derived from the
National Weather Service - (IWIN) and the National Oceanic Atmospheric Administration (NOAA)
Canadian forecasts are obtained from and are copyright of Environment Canada.